Airfield :







YOU CAN JOIN US ON...

 
LOGIN :

Register | Disclaimer

   EN    FR    IT 

 









Legend :    VFR   Marginal VFR   IFR   Intensive IFR   Very Intensive IFR
Visi :
Ceiling :
>= 8 km
>= 3000ft
5 to 8 km
1000 to 3000 ft
1500m to 5 km
500 to 1000 ft
800 to 1500m
200 to 500 ft
< 800m
< 200 ft
Symbols :   Thunderstorms  Fog  Heavy snow  Heavy precipitations  Wind > 20 kt






- Airport Elevation : 11 ft


KGHG - Marshfield Municipal George Harlow Field

CURRENT METAR :
  • 100415Z AUTO 21017G26KT 2SM -RA FEW001 SCT012 OVC017 16/16 A2970 RMK AO2

EXPIRED METARs :
  • 100355Z AUTO 21015G25KT 2SM -RA FEW001 BKN014 OVC036 16/16 A2972 RMK AO2 P0005 VIS 1V5
  • 100335Z AUTO 21016G25KT 150V230 9SM BKN014 BKN023 OVC043 16/16 A2972 RMK AO2
  • 100315Z AUTO 20014G26KT 160V220 3SM -RA FEW001 SCT008 OVC013 16/16 A2973 RMK AO2
  • 100255Z AUTO 20014G23KT 2SM -RA FEW001 BKN009 OVC013 16/16 A2974 RMK AO2 P0011
  • 100235Z AUTO 19015G23KT 8SM BKN011 OVC016 15/15 A2974 RMK AO2
  • 100215Z AUTO 20013G20KT 170V230 4SM BR FEW001 BKN009 OVC022 15/15 A2976 RMK AO2
  • 100155Z AUTO 20013G18KT 1 1/2SM -RA SCT001 OVC008 15/15 A2979 RMK AO2 P0010
  • 100135Z AUTO 20009G18KT 4SM -RA FEW001 BKN009 OVC014 15/15 A2980 RMK AO2

TAF N/A



MET'MAP, your aeronautical weather chart ! - Copyright ORBIFLY December 2007 - Disclaimer

ORBIFLY MET'MAP TEAM :

Programming & Development : Alexandra Zaïnal
Concept & original design : Baudouin d'Aumeries
Assistance for programming : Marc-Olivier Méhu
Technical & hardware support : Manuel Goepfert

Contact : metmap@orbifly.com




SOURCES & CREDITS :

   NOAA